createdAt,value
2018-05-06T00:01:23.685Z,12.00
2018-05-06T00:03:51.133Z,12.00
2018-05-06T00:06:18.640Z,11.90
2018-05-06T00:08:46.089Z,11.90
2018-05-06T00:11:13.649Z,11.90
2018-05-06T00:13:41.102Z,11.90
2018-05-06T00:16:09.346Z,11.80
2018-05-06T00:18:36.797Z,11.80
2018-05-06T00:21:04.245Z,11.80
2018-05-06T00:23:31.718Z,11.70
2018-05-06T00:25:59.168Z,11.70
2018-05-06T00:28:27.470Z,11.60
2018-05-06T00:30:55.692Z,11.60
2018-05-06T00:33:23.148Z,11.60
2018-05-06T00:35:50.604Z,11.60
2018-05-06T00:38:18.100Z,11.50
2018-05-06T00:40:45.545Z,11.50
2018-05-06T00:43:13.807Z,11.40
2018-05-06T00:45:42.028Z,11.30
2018-05-06T00:48:09.480Z,11.30
2018-05-06T00:50:36.952Z,11.30
2018-05-06T00:53:04.418Z,11.20
2018-05-06T00:55:31.994Z,11.20
2018-05-06T00:57:59.436Z,11.10
2018-05-06T01:00:27.684Z,11.00
2018-05-06T01:02:55.133Z,11.00
2018-05-06T01:05:22.588Z,11.00
2018-05-06T01:07:50.096Z,11.00
2018-05-06T01:10:17.569Z,10.90
2018-05-06T01:12:45.136Z,10.80
2018-05-06T01:15:12.584Z,10.70
2018-05-06T01:17:40.093Z,10.70
2018-05-06T01:20:07.544Z,10.70
2018-05-06T01:22:35.072Z,10.60
2018-05-06T01:25:03.283Z,10.60
2018-05-06T01:27:30.732Z,10.60
2018-05-06T01:29:58.958Z,10.60
2018-05-06T01:32:26.408Z,10.60
2018-05-06T01:34:53.881Z,10.50
2018-05-06T01:37:21.325Z,10.40
2018-05-06T01:39:49.568Z,10.40
2018-05-06T01:42:17.037Z,10.30
2018-05-06T01:44:44.611Z,10.40
2018-05-06T01:47:12.070Z,10.30
2018-05-06T01:49:39.528Z,10.30
2018-05-06T01:52:07.001Z,10.20
2018-05-06T01:54:34.467Z,10.20
2018-05-06T01:57:02.019Z,10.20
2018-05-06T01:59:29.457Z,10.20
2018-05-06T02:01:56.960Z,10.10
2018-05-06T02:04:25.191Z,10.00
2018-05-06T02:06:52.754Z,9.90
2018-05-06T02:09:20.224Z,9.90
2018-05-06T02:11:47.702Z,10.00
2018-05-06T02:14:15.167Z,9.90
2018-05-06T02:16:42.618Z,9.90
2018-05-06T02:19:10.083Z,9.80
2018-05-06T02:21:37.542Z,9.70
2018-05-06T02:24:04.995Z,9.70
2018-05-06T02:26:33.233Z,9.70
2018-05-06T02:29:00.813Z,9.70
2018-05-06T02:31:28.268Z,9.70
2018-05-06T02:33:55.741Z,9.70
2018-05-06T02:36:23.196Z,9.70
2018-05-06T02:38:50.680Z,9.60
2018-05-06T02:41:18.137Z,9.60
2018-05-06T02:43:45.589Z,9.50
2018-05-06T02:46:13.098Z,9.50
2018-05-06T02:48:40.721Z,9.50
2018-05-06T02:51:08.208Z,9.50
2018-05-06T02:53:35.664Z,9.50
2018-05-06T02:56:03.888Z,9.40
2018-05-06T02:58:31.331Z,9.40
2018-05-06T03:00:58.896Z,9.40
2018-05-06T03:03:27.108Z,9.30
2018-05-06T03:05:54.584Z,9.30
2018-05-06T03:08:22.045Z,9.20
2018-05-06T03:10:49.527Z,9.20
2018-05-06T03:13:16.992Z,9.20
2018-05-06T03:15:44.481Z,9.20
2018-05-06T03:18:11.989Z,9.10
2018-05-06T03:20:40.205Z,9.10
2018-05-06T03:23:07.680Z,9.00
2018-05-06T03:25:35.141Z,9.00
2018-05-06T03:28:02.584Z,9.00
2018-05-06T03:30:30.886Z,8.90
2018-05-06T03:32:58.460Z,8.90
2018-05-06T03:35:26.031Z,8.90
2018-05-06T03:37:54.228Z,8.80
2018-05-06T03:40:21.691Z,8.80
2018-05-06T03:42:49.192Z,8.80
2018-05-06T03:45:16.661Z,8.80
2018-05-06T03:47:44.111Z,8.80
2018-05-06T03:50:11.581Z,8.80
2018-05-06T03:52:39.028Z,8.80
2018-05-06T03:55:06.553Z,8.80
2018-05-06T03:57:45.932Z,8.80
2018-05-06T04:00:26.096Z,8.80
2018-05-06T04:02:53.528Z,8.70
2018-05-06T04:05:21.066Z,8.80
2018-05-06T04:07:49.304Z,8.80
2018-05-06T04:10:16.749Z,8.80
2018-05-06T04:12:44.213Z,8.70
2018-05-06T04:15:11.664Z,8.70
2018-05-06T04:17:39.121Z,8.70
2018-05-06T04:20:07.372Z,8.70
2018-05-06T04:22:34.813Z,8.70
2018-05-06T04:25:02.297Z,8.70
2018-05-06T04:27:29.736Z,8.70
2018-05-06T04:29:57.193Z,8.70
2018-05-06T04:32:24.640Z,8.70
2018-05-06T04:34:52.961Z,8.70
2018-05-06T04:37:20.408Z,8.70
2018-05-06T04:39:48.623Z,8.80
2018-05-06T04:42:16.126Z,8.80
2018-05-06T04:44:43.580Z,8.80
2018-05-06T04:47:11.064Z,8.90
2018-05-06T04:49:38.544Z,8.90
2018-05-06T04:52:06.096Z,9.00
2018-05-06T04:54:33.537Z,9.00
2018-05-06T04:57:00.996Z,9.10
2018-05-06T04:59:28.440Z,9.20
2018-05-06T05:01:55.896Z,9.20
2018-05-06T05:04:23.344Z,9.30
2018-05-06T05:06:50.785Z,9.40
2018-05-06T05:09:18.284Z,9.40
2018-05-06T05:11:45.737Z,9.50
2018-05-06T05:14:13.214Z,9.60
2018-05-06T05:16:40.804Z,9.70
2018-05-06T05:19:08.444Z,9.80
2018-05-06T05:21:35.886Z,9.90
2018-05-06T05:24:04.136Z,10.20
2018-05-06T05:26:31.602Z,10.10
2018-05-06T05:28:59.040Z,10.30
2018-05-06T05:31:26.500Z,10.50
2018-05-06T05:33:53.948Z,10.60
2018-05-06T05:36:22.172Z,11.00
2018-05-06T05:38:49.729Z,11.00
2018-05-06T05:41:17.954Z,11.40
2018-05-06T05:43:45.409Z,11.30
2018-05-06T05:46:12.892Z,11.60
2018-05-06T05:48:40.366Z,11.80
2018-05-06T05:51:07.832Z,11.90
2018-05-06T05:53:35.300Z,12.00
2018-05-06T05:56:02.752Z,12.20
2018-05-06T05:58:30.216Z,12.30
2018-05-06T06:00:57.716Z,12.50
2018-05-06T06:03:25.180Z,12.70
2018-05-06T06:05:52.656Z,12.90
2018-05-06T06:08:20.116Z,13.20
2018-05-06T06:10:47.564Z,13.40
2018-05-06T06:13:15.057Z,13.50
2018-05-06T06:15:42.534Z,13.70
2018-05-06T06:18:10.028Z,13.80
2018-05-06T06:20:37.497Z,14.00
2018-05-06T06:23:05.041Z,14.20
2018-05-06T06:25:32.502Z,14.40
2018-05-06T06:28:00.085Z,14.70
2018-05-06T06:30:27.549Z,15.00
2018-05-06T06:32:55.071Z,15.30
2018-05-06T06:35:22.496Z,15.60
2018-05-06T06:37:49.973Z,16.00
2018-05-06T06:40:17.547Z,16.40
2018-05-06T06:42:45.013Z,16.80
2018-05-06T06:45:12.485Z,17.30
2018-05-06T06:47:39.944Z,17.70
2018-05-06T06:50:07.404Z,18.10
2018-05-06T06:52:34.896Z,18.20
2018-05-06T06:55:02.368Z,18.50
2018-05-06T06:57:29.821Z,18.80
2018-05-06T06:59:57.307Z,18.90
2018-05-06T07:02:24.872Z,19.10
2018-05-06T07:04:52.324Z,19.20
2018-05-06T07:07:19.773Z,19.50
2018-05-06T07:09:47.268Z,19.80
2018-05-06T07:12:14.732Z,20.00
2018-05-06T07:14:42.273Z,20.30
2018-05-06T07:17:10.485Z,20.60
2018-05-06T07:19:37.980Z,20.60
2018-05-06T07:22:05.430Z,20.70
2018-05-06T07:24:32.900Z,21.10
2018-05-06T07:27:00.351Z,21.30
2018-05-06T07:29:27.804Z,21.30
2018-05-06T07:31:56.040Z,21.30
2018-05-06T07:34:23.484Z,21.20
2018-05-06T07:36:50.948Z,21.60
2018-05-06T07:39:18.405Z,21.60
2018-05-06T07:41:46.641Z,21.70
2018-05-06T07:44:14.149Z,21.70
2018-05-06T07:46:41.624Z,21.70
2018-05-06T07:50:53.002Z,22.10
2018-05-06T07:53:20.492Z,22.10
2018-05-06T07:55:47.949Z,22.30
2018-05-06T07:58:15.425Z,22.40
2018-05-06T08:00:42.892Z,22.80
2018-05-06T08:03:10.454Z,22.90
2018-05-06T08:05:37.932Z,23.00
2018-05-06T08:08:05.405Z,23.20
2018-05-06T08:10:32.870Z,23.40
2018-05-06T08:13:00.327Z,23.50
2018-05-06T08:15:27.788Z,23.80
2018-05-06T08:17:55.253Z,23.80
2018-05-06T08:20:22.710Z,24.00
2018-05-06T08:22:50.160Z,24.10
2018-05-06T08:25:18.485Z,24.80
2018-05-06T08:27:45.973Z,24.80
2018-05-06T08:30:13.544Z,25.00
2018-05-06T08:32:40.992Z,24.80
2018-05-06T08:35:08.453Z,24.80
2018-05-06T08:37:36.010Z,24.90
2018-05-06T08:40:03.424Z,25.10
2018-05-06T08:42:30.959Z,25.30
2018-05-06T08:44:58.460Z,25.50
2018-05-06T08:47:25.953Z,25.70
2018-05-06T08:49:54.929Z,26.40
2018-05-06T08:52:22.420Z,26.40
2018-05-06T08:54:49.868Z,26.90
2018-05-06T08:57:17.316Z,27.30
2018-05-06T08:59:44.971Z,27.60
2018-05-06T09:02:12.272Z,27.70
2018-05-06T09:04:39.736Z,27.90
2018-05-06T09:07:07.241Z,27.60
2018-05-06T09:09:34.696Z,28.00
2018-05-06T09:12:02.147Z,28.10
2018-05-06T09:14:29.620Z,28.40
2018-05-06T09:16:57.081Z,28.60
2018-05-06T09:19:24.557Z,29.00
2018-05-06T09:21:52.048Z,29.30
2018-05-06T09:24:19.583Z,29.50
2018-05-06T09:26:47.037Z,29.30
2018-05-06T09:29:15.277Z,29.50
2018-05-06T09:31:42.741Z,29.50
2018-05-06T09:34:10.187Z,29.60
2018-05-06T09:36:37.693Z,30.00
2018-05-06T09:39:05.141Z,30.10
2018-05-06T09:41:32.589Z,30.00
2018-05-06T09:44:00.065Z,30.40
2018-05-06T09:46:27.634Z,30.40
2018-05-06T09:48:55.097Z,30.90
2018-05-06T09:51:22.546Z,30.90
2018-05-06T09:53:50.798Z,31.30
2018-05-06T09:56:18.330Z,31.30
2018-05-06T09:58:46.552Z,31.40
2018-05-06T10:01:14.031Z,31.40
2018-05-06T10:03:41.492Z,31.80
2018-05-06T10:06:08.940Z,32.00
2018-05-06T10:08:36.393Z,32.10
2018-05-06T10:11:03.905Z,32.40
2018-05-06T10:13:31.368Z,32.20
2018-05-06T10:15:58.909Z,32.30
2018-05-06T10:18:26.366Z,32.50
2018-05-06T10:20:54.605Z,32.90
2018-05-06T10:23:22.072Z,32.90
2018-05-06T10:25:49.536Z,33.20
2018-05-06T10:28:16.994Z,33.40
2018-05-06T10:30:44.439Z,33.50
2018-05-06T10:33:11.904Z,33.50
2018-05-06T10:35:40.125Z,32.60
2018-05-06T10:38:07.584Z,32.70
2018-05-06T10:40:35.034Z,33.00
2018-05-06T10:43:03.261Z,33.10
2018-05-06T10:45:30.805Z,33.00
2018-05-06T10:47:58.313Z,33.10
2018-05-06T10:50:25.797Z,33.10
2018-05-06T10:52:53.358Z,32.70
2018-05-06T10:55:20.817Z,32.70
2018-05-06T10:57:48.357Z,33.20
2018-05-06T11:00:15.760Z,33.40
2018-05-06T11:02:43.224Z,33.40
2018-05-06T11:05:10.702Z,33.20
2018-05-06T11:07:38.150Z,33.50
2018-05-06T11:10:05.639Z,33.70
2018-05-06T11:12:33.089Z,33.20
2018-05-06T11:15:00.580Z,33.20
2018-05-06T11:17:28.065Z,33.20
2018-05-06T11:19:55.659Z,33.60
2018-05-06T11:22:23.910Z,33.00
2018-05-06T11:24:51.356Z,33.00
2018-05-06T11:27:18.851Z,32.70
2018-05-06T11:29:46.320Z,32.70
2018-05-06T11:32:13.785Z,33.00
2018-05-06T11:34:41.256Z,33.10
2018-05-06T11:37:08.828Z,33.30
2018-05-06T11:39:36.304Z,33.70
2018-05-06T11:42:03.764Z,34.20
2018-05-06T11:44:31.238Z,34.40
2018-05-06T11:46:58.701Z,34.50
2018-05-06T11:49:26.184Z,34.40
2018-05-06T11:51:53.657Z,34.40
2018-05-06T11:54:21.220Z,34.60
2018-05-06T11:56:48.673Z,34.80
2018-05-06T11:59:16.170Z,34.40
2018-05-06T12:01:43.620Z,34.40
2018-05-06T12:04:11.100Z,34.20
2018-05-06T12:06:38.553Z,34.40
2018-05-06T12:09:06.008Z,33.80
2018-05-06T12:11:33.466Z,33.70
2018-05-06T12:14:01.700Z,34.00
2018-05-06T12:16:29.185Z,34.00
2018-05-06T12:18:56.667Z,34.50
2018-05-06T12:21:24.129Z,34.80
2018-05-06T12:23:52.350Z,34.70
2018-05-06T12:26:19.932Z,34.70
2018-05-06T12:28:47.401Z,35.10
2018-05-06T12:31:14.872Z,35.10
2018-05-06T12:33:42.394Z,35.10
2018-05-06T12:36:09.833Z,34.90
2018-05-06T12:38:37.293Z,35.20
2018-05-06T12:41:04.752Z,35.50
2018-05-06T12:43:32.974Z,35.60
2018-05-06T12:46:00.438Z,35.60
2018-05-06T12:48:27.920Z,35.70
2018-05-06T12:50:55.377Z,35.70
2018-05-06T12:53:22.846Z,35.60
2018-05-06T12:55:50.297Z,35.10
2018-05-06T12:58:17.812Z,35.20
2018-05-06T13:00:45.281Z,35.30
2018-05-06T13:03:12.729Z,35.20
2018-05-06T13:05:40.201Z,35.60
2018-05-06T13:08:07.648Z,36.10
2018-05-06T13:10:35.141Z,35.80
2018-05-06T13:13:02.612Z,36.10
2018-05-06T13:15:30.081Z,35.80
2018-05-06T13:17:57.556Z,35.40
2018-05-06T13:20:25.021Z,35.30
2018-05-06T13:22:52.559Z,35.80
2018-05-06T13:25:20.001Z,36.10
2018-05-06T13:27:48.248Z,36.20
2018-05-06T13:30:15.724Z,36.20
2018-05-06T13:32:43.189Z,36.20
2018-05-06T13:35:10.636Z,36.20
2018-05-06T13:37:38.096Z,36.00
2018-05-06T13:40:05.577Z,35.60
2018-05-06T13:42:33.044Z,35.80
2018-05-06T13:45:00.502Z,35.70
2018-05-06T13:47:27.944Z,35.50
2018-05-06T13:49:56.317Z,35.50
2018-05-06T13:52:23.680Z,35.50
2018-05-06T13:54:51.143Z,35.50
2018-05-06T13:57:18.604Z,35.50
2018-05-06T13:59:46.142Z,35.50
2018-05-06T14:02:13.645Z,35.90
2018-05-06T14:04:41.092Z,35.80
2018-05-06T14:07:08.562Z,35.60
2018-05-06T14:09:36.057Z,35.30
2018-05-06T14:12:03.532Z,35.10
2018-05-06T14:14:30.980Z,34.80
2018-05-06T14:16:58.451Z,34.90
2018-05-06T14:19:25.897Z,35.10
2018-05-06T14:21:53.353Z,35.00
2018-05-06T14:24:21.611Z,35.20
2018-05-06T14:26:49.056Z,35.10
2018-05-06T14:29:16.595Z,34.60
2018-05-06T14:31:44.049Z,34.70
2018-05-06T14:34:12.281Z,33.90
2018-05-06T14:36:39.724Z,33.90
2018-05-06T14:39:07.198Z,33.10
2018-05-06T14:41:34.763Z,32.40
2018-05-06T14:44:02.271Z,31.70
2018-05-06T14:46:41.704Z,30.90
2018-05-06T14:49:09.156Z,30.30
2018-05-06T14:51:36.658Z,29.80
2018-05-06T14:54:04.112Z,29.50
2018-05-06T14:56:31.570Z,29.30
2018-05-06T14:58:59.135Z,29.20
2018-05-06T15:01:26.609Z,29.10
2018-05-06T15:03:54.109Z,28.80
2018-05-06T15:06:21.559Z,28.70
2018-05-06T15:08:49.052Z,28.60
2018-05-06T15:11:16.516Z,28.50
2018-05-06T15:13:43.991Z,28.60
2018-05-06T15:16:11.452Z,28.60
2018-05-06T15:18:38.900Z,28.50
2018-05-06T15:21:06.401Z,28.40
2018-05-06T15:23:33.888Z,28.30
2018-05-06T15:26:02.397Z,28.20
2018-05-06T15:28:29.849Z,28.10
2018-05-06T15:30:57.330Z,28.00
2018-05-06T15:33:24.789Z,27.90
2018-05-06T15:35:53.029Z,27.80
2018-05-06T15:38:20.488Z,27.70
2018-05-06T15:40:47.936Z,27.70
2018-05-06T15:43:15.400Z,27.60
2018-05-06T15:45:42.849Z,27.50
2018-05-06T15:48:10.297Z,27.50
2018-05-06T15:50:37.796Z,27.50
2018-05-06T15:53:05.254Z,27.40
2018-05-06T15:55:32.724Z,27.40
2018-05-06T15:58:00.189Z,27.40
2018-05-06T16:00:27.726Z,27.30
2018-05-06T16:03:07.177Z,27.30
2018-05-06T16:05:35.404Z,27.20
2018-05-06T16:08:02.938Z,27.20
2018-05-06T16:10:30.323Z,27.20
2018-05-06T16:12:57.792Z,27.10
2018-05-06T16:15:25.346Z,27.10
2018-05-06T16:17:53.635Z,27.00
2018-05-06T16:20:21.846Z,27.00
2018-05-06T16:22:49.370Z,27.00
2018-05-06T16:25:17.600Z,27.00
2018-05-06T16:27:45.054Z,27.00
2018-05-06T16:30:12.517Z,26.90
2018-05-06T16:32:39.966Z,26.90
2018-05-06T16:35:08.188Z,26.80
2018-05-06T16:37:35.648Z,26.80
2018-05-06T16:40:03.219Z,26.80
2018-05-06T16:42:30.661Z,26.70
2018-05-06T16:44:58.124Z,26.70
2018-05-06T16:47:25.668Z,26.60
2018-05-06T16:49:53.164Z,26.60
2018-05-06T16:52:20.774Z,26.60
2018-05-06T16:54:48.253Z,26.60
2018-05-06T16:57:15.866Z,26.50
2018-05-06T16:59:43.336Z,26.50
2018-05-06T17:02:10.796Z,26.50
2018-05-06T17:04:38.326Z,26.40
2018-05-06T17:07:05.797Z,26.30
2018-05-06T17:09:33.236Z,26.30
2018-05-06T17:12:00.689Z,26.20
2018-05-06T17:14:28.248Z,26.20
2018-05-06T17:16:55.697Z,26.10
2018-05-06T17:19:23.160Z,26.10
2018-05-06T17:21:50.617Z,26.00
2018-05-06T17:24:18.190Z,26.00
2018-05-06T17:26:45.649Z,25.90
2018-05-06T17:29:13.167Z,25.80
2018-05-06T17:31:40.628Z,25.80
2018-05-06T17:34:08.081Z,25.80
2018-05-06T17:36:35.546Z,25.70
2018-05-06T17:39:03.010Z,25.70
2018-05-06T17:41:30.578Z,25.60
2018-05-06T17:43:58.784Z,25.50
2018-05-06T17:46:26.373Z,25.40
2018-05-06T17:48:55.056Z,25.30
2018-05-06T17:51:22.528Z,25.30
2018-05-06T17:53:50.087Z,25.20
2018-05-06T17:56:17.759Z,25.10
2018-05-06T17:58:45.229Z,25.00
2018-05-06T18:01:12.676Z,25.00
2018-05-06T18:03:40.904Z,24.80
2018-05-06T18:06:08.458Z,24.80
2018-05-06T18:08:36.040Z,24.70
2018-05-06T18:11:03.500Z,24.70
2018-05-06T18:13:30.956Z,24.60
2018-05-06T18:15:59.202Z,24.50
2018-05-06T18:18:26.672Z,24.40
2018-05-06T18:20:54.152Z,24.40
2018-05-06T18:23:21.604Z,24.30
2018-05-06T18:25:49.093Z,24.30
2018-05-06T18:28:16.575Z,24.20
2018-05-06T18:30:44.048Z,24.10
2018-05-06T18:33:12.364Z,23.90
2018-05-06T18:35:40.569Z,23.80
2018-05-06T18:38:10.012Z,23.80
2018-05-06T18:40:37.476Z,23.80
2018-05-06T18:43:04.936Z,23.70
2018-05-06T18:45:32.434Z,23.60
2018-05-06T18:47:59.997Z,23.50
2018-05-06T18:50:27.443Z,23.40
2018-05-06T18:52:54.912Z,23.30
2018-05-06T18:55:22.373Z,23.10
2018-05-06T18:57:49.834Z,23.00
2018-05-06T19:00:17.302Z,22.90
2018-05-06T19:02:45.618Z,22.80
2018-05-06T19:05:13.113Z,22.80
2018-05-06T19:07:40.560Z,22.70
2018-05-06T19:10:08.056Z,22.70
2018-05-06T19:12:35.588Z,22.60
2018-05-06T19:15:03.045Z,22.60
2018-05-06T19:17:31.261Z,22.50
2018-05-06T19:19:58.817Z,22.50
2018-05-06T19:22:27.107Z,22.40
2018-05-06T19:24:54.556Z,22.40
2018-05-06T19:27:22.782Z,22.30
2018-05-06T19:29:50.250Z,22.20
2018-05-06T19:32:17.725Z,22.20
2018-05-06T19:34:45.221Z,22.10
2018-05-06T19:37:12.696Z,22.00
2018-05-06T19:39:40.200Z,22.00
2018-05-06T19:42:07.619Z,21.90
2018-05-06T19:44:35.080Z,21.80
2018-05-06T19:47:02.541Z,21.70
2018-05-06T19:49:30.020Z,21.60
2018-05-06T19:51:57.488Z,21.50
2018-05-06T19:54:24.940Z,21.50
2018-05-06T19:56:52.687Z,21.50
2018-05-06T19:59:20.213Z,21.40
2018-05-06T20:01:47.725Z,21.30
2018-05-06T20:04:15.181Z,21.30
2018-05-06T20:06:44.184Z,21.20
2018-05-06T20:09:12.444Z,21.10
2018-05-06T20:11:39.917Z,21.10
2018-05-06T20:14:07.360Z,21.00
2018-05-06T20:16:35.577Z,20.80
2018-05-06T20:19:03.076Z,20.80
2018-05-06T20:21:30.567Z,20.70
2018-05-06T20:23:58.012Z,20.70
2018-05-06T20:26:25.461Z,20.60
2018-05-06T20:28:52.945Z,20.50
2018-05-06T20:31:20.416Z,20.40
2018-05-06T20:33:47.880Z,20.30
2018-05-06T20:36:15.343Z,20.20
2018-05-06T20:38:42.808Z,20.20
2018-05-06T20:41:10.288Z,20.10
2018-05-06T20:46:00.608Z,20.00
2018-05-06T20:48:28.059Z,20.00
2018-05-06T20:50:55.568Z,20.00
2018-05-06T20:53:23.022Z,19.90
2018-05-06T20:55:50.488Z,19.90
2018-05-06T20:58:17.956Z,19.80
2018-05-06T21:00:45.412Z,19.70
2018-05-06T21:03:12.954Z,19.60
2018-05-06T21:05:40.344Z,19.50
2018-05-06T21:08:07.836Z,19.40
2018-05-06T21:10:35.353Z,19.30
2018-05-06T21:13:02.757Z,19.20
2018-05-06T21:15:30.203Z,19.20
2018-05-06T21:17:58.428Z,19.00
2018-05-06T21:20:25.920Z,19.00
2018-05-06T21:22:53.372Z,18.90
2018-05-06T21:25:20.855Z,18.80
2018-05-06T21:27:48.330Z,18.60
2018-05-06T21:30:15.768Z,18.50
2018-05-06T21:32:43.236Z,18.40
2018-05-06T21:35:10.697Z,18.30
2018-05-06T21:37:38.206Z,18.10
2018-05-06T21:40:06.396Z,17.90
2018-05-06T21:42:33.844Z,17.90
2018-05-06T21:45:01.391Z,17.80
2018-05-06T21:47:28.870Z,17.70
2018-05-06T21:49:57.096Z,17.50
2018-05-06T21:52:24.668Z,17.50
2018-05-06T21:54:52.153Z,17.50
2018-05-06T21:57:19.584Z,17.50
2018-05-06T21:59:47.045Z,17.50
2018-05-06T22:02:14.508Z,17.50
2018-05-06T22:04:41.966Z,17.40
2018-05-06T22:07:10.197Z,17.40
2018-05-06T22:09:37.644Z,17.40
2018-05-06T22:12:05.144Z,17.30
2018-05-06T22:14:32.723Z,17.20
2018-05-06T22:17:00.185Z,17.10
2018-05-06T22:19:27.653Z,17.00
2018-05-06T22:21:55.104Z,16.90
2018-05-06T22:24:22.564Z,16.80
2018-05-06T22:26:50.031Z,16.70
2018-05-06T22:29:17.499Z,16.60
2018-05-06T22:31:44.961Z,16.50
2018-05-06T22:34:12.495Z,16.40
2018-05-06T22:36:40.649Z,16.20
2018-05-06T22:39:08.108Z,16.10
2018-05-06T22:41:35.588Z,16.10
2018-05-06T22:44:03.019Z,16.10
2018-05-06T22:46:31.250Z,16.00
2018-05-06T22:48:58.724Z,16.00
2018-05-06T22:51:26.188Z,16.00
2018-05-06T22:53:53.665Z,15.90
2018-05-06T22:56:21.128Z,15.90
2018-05-06T22:58:48.582Z,15.90
2018-05-06T23:01:16.054Z,15.90
2018-05-06T23:03:43.576Z,16.00
2018-05-06T23:06:11.032Z,15.90
2018-05-06T23:08:39.285Z,15.80
2018-05-06T23:11:06.776Z,15.80
2018-05-06T23:13:34.197Z,15.80
2018-05-06T23:16:02.411Z,15.70
2018-05-06T23:18:29.872Z,15.70
2018-05-06T23:20:57.430Z,15.60
2018-05-06T23:23:24.845Z,15.70
2018-05-06T23:25:52.309Z,15.60
2018-05-06T23:28:19.772Z,15.60
2018-05-06T23:30:47.240Z,15.70
2018-05-06T23:33:14.730Z,15.60
2018-05-06T23:35:42.199Z,15.60
2018-05-06T23:38:09.644Z,15.40
2018-05-06T23:40:37.125Z,15.40
2018-05-06T23:43:04.598Z,15.30
2018-05-06T23:45:32.056Z,15.40
2018-05-06T23:47:59.513Z,15.50
2018-05-06T23:50:27.021Z,15.50
2018-05-06T23:52:54.518Z,15.50
2018-05-06T23:55:21.965Z,15.60
2018-05-06T23:57:49.413Z,15.60
